Main page


Airports :

Riyadh, Saudi Arabia

King Khalid International Airport

latitude: 24-56N, longitude: 046-43E, elevation: 614 m

Current weather observation

The report was made 37 minutes ago, at 04:00 UTC
Wind 5 kt from the North/Northwest
Temperature 19°C
Humidity 40%
Pressure 1014 hPa
Visibility: 5000 m
widespread dust

METAR: OERK 170400Z 34005KT 5000 DU NSC 19/05 Q1014 NOSIG

Time: 07:37 (04:37 UTC)


The report was made 5 hours and 37 minutes ago, at 23:00 UTC
Forecast valid from 17 at 00 UTC to 18 at 06 UTC
Wind 15 kt from the Southwest
Visibility: 7000 m
Scattered clouds at a height of 4000 ft
from 17 at 00 UTC to 17 at 10 UTC
Visibility: 2500 m
Blowing dust

TAF: OERK 162300Z 1700/1806 22015KT 7000 SCT040 TEMPO 1700/1710 2500 BLDU

Weather observations and forecasts of more than 4000 airports (METAR and TAF reports).

The available stations are represented by yellow and red dots on the map.

Hover mouse over dot to see the name of the station.

Then click to see weather observations and forecasts.

To change the map : click on the green buttons with a black cross to zoom in, on the green button with a dash to zoom out, or on the green arrows for adjacent maps.